S 386 Casilo — OZZP — position and weather

sailwx.info

Track history (hours):
 
Tides and Currents Weather Stations Pressure Air Temp Water Temp Dewpoint Dewpoint Depression Visibility Wind Speed Wind Dir Waves Ship Positions

S 386 Casilo

Last reported at 2015-May-05 07:28 UTC. Time now 2015-May-05 12:16 UTC.
Position N 58°29' E 010°26'.

Length 24 m.

Type: Fishing. MMSI: 219948000.

Date/timePositionNaut miles runAvg speedWind from/ knotsBaromVisibWave heightAir tempDewpointWater temp
2015-May-05 07:28N 58°29' E 010°26'2 2.4
2015-May-05 06:33N 58°27' E 010°27'9 9.0
2015-May-05 05:33N 58°21' E 010°14'28 1.0
2015-May-04 02:23N 57°55' E 010°33'7 6.5
2015-May-04 01:18N 58°02' E 010°29'5 7.2
2015-May-04 00:33N 58°07' E 010°27'8 7.7
2015-May-03 23:34N 58°15' E 010°25'8 7.4
2015-May-03 22:31N 58°23' E 010°24'1 0.9
2015-May-03 21:32N 58°22' E 010°24'2 1.9
2015-May-03 20:32N 58°20' E 010°23'2 1.9
2015-May-03 19:32N 58°18' E 010°22'2 1.8
2015-May-03 18:32N 58°17' E 010°19'2 1.8
2015-May-03 17:29N 58°16' E 010°16'2 1.8
2015-May-03 16:32N 58°15' E 010°13'8 1.9
2015-May-03 12:05N 58°12' E 009°59'2 2.0
2015-May-03 11:08N 58°11' E 009°56'1 2.0
2015-May-03 10:26N 58°10' E 009°54'2 2.1
2015-May-03 09:29N 58°09' E 009°51'5 1.8
2015-May-03 06:25N 58°11' E 009°60'2 1.8
2015-May-03 05:22N 58°10' E 009°57'1 1.7
2015-May-03 04:31N 58°09' E 009°55'4 1.9
2015-May-03 02:22N 58°07' E 009°48'2 1.9
2015-May-03 01:13N 58°06' E 009°45'7 2.0
2015-May-02 21:31N 58°02' E 009°33'15 2.7
2015-May-02 16:13N 58°09' E 009°57'  
Track history (hours):
 
Tides and Currents Weather Stations Pressure Air Temp Water Temp Dewpoint Dewpoint Depression Visibility Wind Speed Wind Dir Waves Ship Positions

S 386 Casilo

Last reported at 2015-May-05 07:28 UTC. Time now 2015-May-05 12:16 UTC.
Position N 58°29' E 010°26'.

Length 24 m.

Type: Fishing. MMSI: 219948000.

Date/timePositionNaut miles runAvg speedWind from/ knotsBaromVisibWave heightAir tempDewpointWater temp
2015-May-05 07:28N 58°29' E 010°26'2 2.4
2015-May-05 06:33N 58°27' E 010°27'9 9.0
2015-May-05 05:33N 58°21' E 010°14'28 1.0
2015-May-04 02:23N 57°55' E 010°33'7 6.5
2015-May-04 01:18N 58°02' E 010°29'5 7.2
2015-May-04 00:33N 58°07' E 010°27'8 7.7
2015-May-03 23:34N 58°15' E 010°25'8 7.4
2015-May-03 22:31N 58°23' E 010°24'1 0.9
2015-May-03 21:32N 58°22' E 010°24'2 1.9
2015-May-03 20:32N 58°20' E 010°23'2 1.9
2015-May-03 19:32N 58°18' E 010°22'2 1.8
2015-May-03 18:32N 58°17' E 010°19'2 1.8
2015-May-03 17:29N 58°16' E 010°16'2 1.8
2015-May-03 16:32N 58°15' E 010°13'8 1.9
2015-May-03 12:05N 58°12' E 009°59'2 2.0
2015-May-03 11:08N 58°11' E 009°56'1 2.0
2015-May-03 10:26N 58°10' E 009°54'2 2.1
2015-May-03 09:29N 58°09' E 009°51'5 1.8
2015-May-03 06:25N 58°11' E 009°60'2 1.8
2015-May-03 05:22N 58°10' E 009°57'1 1.7
2015-May-03 04:31N 58°09' E 009°55'4 1.9
2015-May-03 02:22N 58°07' E 009°48'2 1.9
2015-May-03 01:13N 58°06' E 009°45'7 2.0
2015-May-02 21:31N 58°02' E 009°33'15 2.7
2015-May-02 16:13N 58°09' E 009°57'  

Dump ship's entire track history